Time;durP1;ratioP1;P1;durP2;ratioP2;P2;SDS_P1;SDS_P2;PMS_P1;PMS_P2;Temp;Humidity;BMP_temperature;BMP_pressure;BME280_temperature;BME280_humidity;BME280_pressure;Samples;Min_cycle;Max_cycle;Signal;HPM_P1;HPM_P2
2021/09/04 00:00:32;;;;;;;18.40;11.25;;;16.50;90.00;;;;;;5055769;28;20072;-64
2021/09/04 00:02:57;;;;;;;20.15;12.70;;;16.40;90.00;;;;;;5055979;28;20036;-64
2021/09/04 00:05:23;;;;;;;15.00;10.60;;;16.40;90.20;;;;;;5055856;28;20079;-64
2021/09/04 00:07:48;;;;;;;14.93;10.93;;;16.30;90.30;;;;;;5038038;28;20061;-64
2021/09/04 00:10:14;;;;;;;16.50;11.38;;;16.30;90.30;;;;;;5037957;28;20021;-64
2021/09/04 00:12:40;;;;;;;16.45;11.23;;;16.30;90.40;;;;;;5038290;28;20033;-64
2021/09/04 00:15:07;;;;;;;16.50;11.30;;;16.20;90.50;;;;;;5055541;28;20089;-64
2021/09/04 00:17:32;;;;;;;17.48;11.82;;;16.10;90.50;;;;;;5055833;28;20052;-64
2021/09/04 00:19:58;;;;;;;16.65;12.18;;;16.10;90.70;;;;;;5055710;28;20485;-64
2021/09/04 00:22:23;;;;;;;16.63;11.68;;;16.10;90.80;;;;;;5055612;28;20495;-64
2021/09/04 00:24:49;;;;;;;14.50;9.73;;;16.00;90.90;;;;;;5055597;28;20495;-64
2021/09/04 00:27:14;;;;;;;16.63;9.80;;;16.10;90.80;;;;;;5055522;28;20032;-64
2021/09/04 00:29:40;;;;;;;20.52;11.98;;;16.00;90.80;;;;;;5054136;28;20017;-64
2021/09/04 00:32:06;;;;;;;14.10;10.63;;;16.10;90.90;;;;;;5055279;28;20512;-64
2021/09/04 00:34:31;;;;;;;18.20;11.93;;;16.00;90.90;;;;;;5037593;28;20128;-64
2021/09/04 00:36:57;;;;;;;14.38;9.95;;;16.00;91.00;;;;;;5037639;28;20028;-64
2021/09/04 00:39:22;;;;;;;16.00;10.70;;;16.00;91.10;;;;;;5037283;28;20045;-64
2021/09/04 00:41:48;;;;;;;18.52;12.40;;;15.90;91.10;;;;;;5037433;28;20131;-64
2021/09/04 00:44:19;;;;;;;13.88;10.45;;;15.80;91.30;;;;;;5055116;28;20029;-64
2021/09/04 00:46:45;;;;;;;13.82;10.05;;;15.80;91.30;;;;;;5055175;28;20025;-64
2021/09/04 00:49:11;;;;;;;14.77;10.68;;;15.80;91.30;;;;;;5055199;28;20027;-64
2021/09/04 00:51:37;;;;;;;18.98;12.38;;;15.80;91.40;;;;;;5055249;28;20534;-64
2021/09/04 00:54:04;;;;;;;17.60;11.38;;;15.80;91.40;;;;;;5037139;28;20037;-64
2021/09/04 00:56:30;;;;;;;17.83;11.73;;;15.80;91.50;;;;;;5037036;28;20036;-64
2021/09/04 00:58:55;;;;;;;16.42;11.40;;;15.70;91.50;;;;;;5036068;28;20025;-64
2021/09/04 01:01:21;;;;;;;16.00;11.20;;;15.70;91.60;;;;;;5054866;28;20036;-64
2021/09/04 01:03:47;;;;;;;17.23;10.77;;;15.70;91.60;;;;;;5054849;28;20021;-64
2021/09/04 01:06:14;;;;;;;18.40;11.57;;;15.60;91.60;;;;;;5036829;28;20043;-64
2021/09/04 01:08:41;;;;;;;14.82;9.73;;;15.60;91.60;;;;;;5036973;28;20029;-64
2021/09/04 01:11:08;;;;;;;15.07;11.25;;;15.60;92.00;;;;;;5054789;28;20521;-64
2021/09/04 01:13:37;;;;;;;15.43;11.07;;;15.50;91.70;;;;;;5054684;28;20388;-64
2021/09/04 01:16:03;;;;;;;15.90;10.20;;;15.50;91.70;;;;;;5054579;28;20029;-64
2021/09/04 01:18:29;;;;;;;16.38;10.63;;;15.50;91.80;;;;;;5054462;28;20036;-64
2021/09/04 01:20:55;;;;;;;15.93;10.75;;;15.40;91.80;;;;;;5054571;28;20025;-64
2021/09/04 01:23:20;;;;;;;18.95;12.55;;;15.40;91.80;;;;;;5054497;28;20114;-64
2021/09/04 01:25:53;;;;;;;17.90;12.13;;;15.40;91.90;;;;;;5054352;28;20108;-64
2021/09/04 01:28:19;;;;;;;20.83;13.52;;;15.40;91.90;;;;;;5054543;28;20415;-64
2021/09/04 01:30:46;;;;;;;16.55;11.90;;;15.30;92.10;;;;;;5054339;28;20032;-64
2021/09/04 01:33:12;;;;;;;20.92;13.85;;;15.30;92.20;;;;;;5054195;28;20190;-64
2021/09/04 01:35:37;;;;;;;19.35;12.35;;;15.30;92.30;;;;;;5054741;28;20508;-64
2021/09/04 01:38:03;;;;;;;19.65;13.00;;;15.30;92.40;;;;;;5036472;28;20025;-64
2021/09/04 01:40:28;;;;;;;20.60;13.07;;;15.20;92.60;;;;;;5053902;28;20052;-64
2021/09/04 01:42:54;;;;;;;21.77;14.13;;;15.20;92.60;;;;;;5054083;28;20035;-64
2021/09/04 01:45:20;;;;;;;20.70;13.32;;;15.20;92.80;;;;;;5054032;28;20036;-64
2021/09/04 01:47:46;;;;;;;21.30;13.73;;;15.10;93.00;;;;;;5054027;28;20116;-64
2021/09/04 01:50:13;;;;;;;20.80;13.60;;;15.10;93.20;;;;;;5054076;28;20512;-64
2021/09/04 01:52:43;;;;;;;21.90;14.50;;;15.00;93.40;;;;;;5036425;28;20032;-64
2021/09/04 01:55:12;;;;;;;19.83;12.65;;;15.00;93.50;;;;;;5053812;28;20029;-64
2021/09/04 01:57:38;;;;;;;19.45;14.07;;;15.00;93.60;;;;;;5054018;28;20032;-64
2021/09/04 02:00:09;;;;;;;19.70;13.65;;;15.00;93.70;;;;;;5053890;28;20033;-64
2021/09/04 02:02:35;;;;;;;21.08;13.38;;;14.90;94.00;;;;;;5053673;28;20050;-64
2021/09/04 02:05:00;;;;;;;18.83;13.45;;;14.90;93.80;;;;;;5053568;28;20025;-64
2021/09/04 02:07:26;;;;;;;24.33;14.23;;;14.90;94.00;;;;;;5053456;28;20028;-64
2021/09/04 02:09:51;;;;;;;20.35;13.82;;;14.80;94.10;;;;;;5053591;28;20469;-64
2021/09/04 02:12:17;;;;;;;22.77;13.60;;;14.80;94.20;;;;;;5053536;28;20041;-64
2021/09/04 02:14:42;;;;;;;23.63;14.73;;;14.80;94.20;;;;;;5053545;28;20036;-64
2021/09/04 02:17:08;;;;;;;21.67;15.35;;;14.80;94.30;;;;;;5035700;28;20100;-64
2021/09/04 02:19:33;;;;;;;23.02;14.68;;;14.70;94.50;;;;;;5053297;28;20031;-64
2021/09/04 02:21:59;;;;;;;23.02;14.57;;;14.70;94.60;;;;;;5053258;28;20032;-64
2021/09/04 02:24:25;;;;;;;22.08;14.73;;;14.60;94.70;;;;;;5053485;28;20098;-64
2021/09/04 02:26:50;;;;;;;22.02;14.30;;;14.60;94.80;;;;;;5053408;28;20029;-64
2021/09/04 02:29:16;;;;;;;19.02;13.23;;;14.60;95.20;;;;;;5053303;28;20024;-64
2021/09/04 02:31:41;;;;;;;28.88;16.63;;;14.60;95.00;;;;;;5053246;28;20029;-64
2021/09/04 02:34:07;;;;;;;21.42;14.40;;;14.50;95.00;;;;;;5053096;28;20035;-64
2021/09/04 02:36:33;;;;;;;23.23;15.00;;;14.50;95.10;;;;;;5053018;28;20043;-64
2021/09/04 02:38:58;;;;;;;22.60;14.73;;;14.50;95.20;;;;;;5052786;28;20127;-64
2021/09/04 02:41:24;;;;;;;20.40;14.45;;;14.50;95.20;;;;;;5053096;28;20036;-64
2021/09/04 02:43:49;;;;;;;21.00;15.05;;;14.40;95.30;;;;;;5053081;28;20024;-64
2021/09/04 02:46:15;;;;;;;20.42;14.70;;;14.40;95.40;;;;;;5053026;28;20033;-64
2021/09/04 02:48:40;;;;;;;20.95;13.00;;;14.30;95.50;;;;;;5052990;28;20025;-64
2021/09/04 02:51:06;;;;;;;20.58;13.52;;;14.30;95.60;;;;;;5052780;28;20028;-64
2021/09/04 02:53:32;;;;;;;21.75;13.38;;;14.30;95.60;;;;;;5034954;28;20035;-64
2021/09/04 02:55:58;;;;;;;22.90;13.77;;;14.30;95.60;;;;;;5052780;28;20029;-64
2021/09/04 02:58:23;;;;;;;24.23;15.32;;;14.30;95.70;;;;;;5052859;28;20075;-64
2021/09/04 03:00:49;;;;;;;24.33;15.50;;;14.30;95.80;;;;;;5052916;28;20028;-64
2021/09/04 03:03:14;;;;;;;24.73;16.33;;;14.30;96.00;;;;;;5052741;28;20111;-64
2021/09/04 03:05:40;;;;;;;21.98;15.20;;;14.30;96.20;;;;;;5052541;28;20025;-64
2021/09/04 03:08:05;;;;;;;30.30;17.63;;;14.30;96.30;;;;;;5052910;28;20025;-64
2021/09/04 03:10:31;;;;;;;25.42;16.58;;;14.30;96.40;;;;;;5052736;28;20025;-64
2021/09/04 03:12:57;;;;;;;23.95;16.67;;;14.30;96.50;;;;;;5052702;28;20114;-64
2021/09/04 03:15:23;;;;;;;26.27;17.85;;;14.30;96.60;;;;;;5034925;28;20059;-64
2021/09/04 03:17:48;;;;;;;24.92;17.27;;;14.30;96.80;;;;;;5052702;28;20028;-64
2021/09/04 03:20:14;;;;;;;29.63;17.02;;;14.20;96.90;;;;;;5052378;28;20469;-64
2021/09/04 03:22:40;;;;;;;24.50;16.58;;;14.30;97.00;;;;;;5055895;28;20025;-64
2021/09/04 03:25:06;;;;;;;29.88;19.67;;;14.30;97.00;;;;;;5056773;28;20032;-64
2021/09/04 03:27:32;;;;;;;27.65;17.95;;;14.30;97.10;;;;;;5056602;28;20022;-64
2021/09/04 03:29:59;;;;;;;28.25;17.80;;;14.30;97.20;;;;;;5056748;28;20028;-64
2021/09/04 03:32:25;;;;;;;27.23;19.42;;;14.20;97.40;;;;;;5056494;28;20481;-64
2021/09/04 03:34:52;;;;;;;30.60;19.67;;;14.20;97.60;;;;;;5038637;28;20044;-64
2021/09/04 03:37:18;;;;;;;27.75;18.00;;;14.20;97.70;;;;;;5038457;28;20094;-64
2021/09/04 03:39:43;;;;;;;30.30;18.67;;;14.20;97.80;;;;;;5056389;28;20059;-64
2021/09/04 03:42:09;;;;;;;31.17;20.20;;;14.20;97.90;;;;;;5056337;28;20033;-64
2021/09/04 03:44:35;;;;;;;30.20;19.10;;;14.10;97.90;;;;;;5056407;28;20071;-64
2021/09/04 03:47:00;;;;;;;28.70;17.92;;;14.10;98.30;;;;;;5056351;28;20025;-64
2021/09/04 03:49:26;;;;;;;33.15;19.63;;;14.10;98.10;;;;;;5056178;28;20025;-64
2021/09/04 03:51:51;;;;;;;27.17;18.42;;;14.10;98.20;;;;;;5056051;28;20071;-64
2021/09/04 03:54:17;;;;;;;31.15;20.42;;;14.10;98.30;;;;;;5056219;28;20029;-64
2021/09/04 03:56:43;;;;;;;31.50;19.92;;;14.10;98.50;;;;;;5056114;28;20079;-64
2021/09/04 03:59:08;;;;;;;29.48;18.30;;;14.10;98.60;;;;;;5056537;28;20055;-64
2021/09/04 04:01:34;;;;;;;30.88;20.38;;;14.10;98.70;;;;;;5056037;28;20499;-64
2021/09/04 04:03:59;;;;;;;33.17;20.08;;;14.10;98.70;;;;;;5038172;28;20021;-64
2021/09/04 04:06:25;;;;;;;27.17;19.00;;;14.00;98.80;;;;;;5055820;28;20025;-64
2021/09/04 04:08:50;;;;;;;30.02;19.92;;;14.00;98.80;;;;;;5055896;28;20048;-63
2021/09/04 04:11:16;;;;;;;29.38;20.02;;;14.00;99.00;;;;;;5055875;28;20025;-63
2021/09/04 04:13:42;;;;;;;31.60;19.88;;;14.00;99.10;;;;;;5055862;28;20025;-64
2021/09/04 04:16:07;;;;;;;37.03;21.25;;;14.00;99.20;;;;;;5055899;28;20017;-63
2021/09/04 04:18:33;;;;;;;28.77;19.50;;;13.90;99.30;;;;;;5055643;28;20021;-64
2021/09/04 04:20:59;;;;;;;29.05;19.70;;;13.90;99.40;;;;;;5055689;28;20036;-63
2021/09/04 04:23:25;;;;;;;28.75;19.25;;;13.90;99.60;;;;;;5055689;28;20029;-63
2021/09/04 04:25:51;;;;;;;29.08;19.85;;;13.90;99.70;;;;;;5055670;28;20079;-63
2021/09/04 04:28:17;;;;;;;29.83;19.92;;;13.90;99.80;;;;;;5055616;28;20441;-63
2021/09/04 04:30:43;;;;;;;28.25;18.77;;;13.90;99.90;;;;;;5037773;28;20025;-63
2021/09/04 04:33:08;;;;;;;33.90;21.10;;;13.90;99.90;;;;;;5055324;28;20127;-64
2021/09/04 04:35:34;;;;;;;31.75;19.35;;;13.90;99.90;;;;;;5055475;28;20037;-63
2021/09/04 04:38:00;;;;;;;29.13;18.77;;;13.90;99.90;;;;;;5036804;28;20108;-64
2021/09/04 04:40:25;;;;;;;35.60;20.67;;;13.90;99.90;;;;;;5037187;28;20044;-64
2021/09/04 04:42:51;;;;;;;30.85;19.50;;;13.90;99.90;;;;;;5053877;28;20369;-63
2021/09/04 04:45:16;;;;;;;30.40;20.52;;;13.90;99.90;;;;;;5055148;28;20388;-63
2021/09/04 04:47:42;;;;;;;32.83;21.23;;;13.90;99.90;;;;;;5055034;28;20075;-63
2021/09/04 04:50:08;;;;;;;34.17;21.13;;;14.00;99.90;;;;;;5055056;28;20033;-63
2021/09/04 04:52:34;;;;;;;33.85;21.67;;;13.90;99.90;;;;;;5055195;28;20047;-64
2021/09/04 04:54:59;;;;;;;34.80;21.20;;;13.90;99.90;;;;;;5055197;28;20029;-64
2021/09/04 04:57:25;;;;;;;38.05;23.27;;;13.90;99.90;;;;;;5055057;28;20029;-63
2021/09/04 04:59:50;;;;;;;33.97;21.75;;;13.90;99.90;;;;;;5054993;28;20032;-64
2021/09/04 05:02:16;;;;;;;35.55;20.85;;;13.90;99.90;;;;;;5055385;28;20057;-63
2021/09/04 05:04:41;;;;;;;35.40;21.98;;;13.90;99.90;;;;;;5054782;28;20025;-63
2021/09/04 05:07:07;;;;;;;34.50;21.80;;;14.00;99.90;;;;;;5054687;28;20033;-63
2021/09/04 05:09:32;;;;;;;37.40;22.10;;;13.90;99.90;;;;;;5054838;28;20106;-63
2021/09/04 05:11:58;;;;;;;36.60;22.08;;;13.90;99.90;;;;;;5054809;28;20472;-63
2021/09/04 05:14:23;;;;;;;34.85;21.98;;;13.90;99.90;;;;;;5059308;28;20020;-63
2021/09/04 05:16:49;;;;;;;33.15;20.98;;;13.90;99.90;;;;;;5063351;28;20039;-63
2021/09/04 05:19:14;;;;;;;35.10;21.73;;;13.90;99.90;;;;;;5053606;28;20099;-63
2021/09/04 05:21:40;;;;;;;34.97;21.98;;;13.90;99.90;;;;;;5036438;28;20088;-63
2021/09/04 05:24:05;;;;;;;32.72;20.35;;;13.90;99.90;;;;;;5054278;28;20071;-63
2021/09/04 05:26:31;;;;;;;35.45;21.55;;;13.90;99.90;;;;;;5054600;28;20067;-69
2021/09/04 05:28:56;;;;;;;34.40;20.75;;;13.90;99.90;;;;;;5054409;28;20032;-63
2021/09/04 05:31:22;;;;;;;37.70;22.52;;;13.90;99.90;;;;;;5054406;28;20024;-64
2021/09/04 05:33:48;;;;;;;37.40;23.13;;;13.90;99.90;;;;;;5036376;28;20043;-63
2021/09/04 05:36:13;;;;;;;34.25;21.13;;;13.90;99.90;;;;;;5054320;28;20051;-63
2021/09/04 05:38:39;;;;;;;31.95;21.65;;;13.90;99.90;;;;;;5053985;28;20397;-63
2021/09/04 05:41:06;;;;;;;34.67;22.17;;;13.90;99.90;;;;;;5054212;28;20397;-63
2021/09/04 05:43:32;;;;;;;29.17;19.88;;;13.90;99.90;;;;;;5053782;28;20043;-63
2021/09/04 05:45:57;;;;;;;29.40;18.92;;;13.90;99.90;;;;;;5054095;28;20473;-63
2021/09/04 05:48:23;;;;;;;30.20;18.65;;;13.90;99.90;;;;;;5053728;28;20032;-63
2021/09/04 05:50:48;;;;;;;29.90;18.80;;;13.90;99.90;;;;;;5068088;28;20464;-63
2021/09/04 05:53:14;;;;;;;34.92;20.60;;;13.90;99.90;;;;;;5047288;28;20490;-63
2021/09/04 05:55:39;;;;;;;35.97;20.70;;;13.90;99.90;;;;;;5073232;28;20508;-63
2021/09/04 05:58:05;;;;;;;34.60;21.52;;;14.00;99.90;;;;;;5072841;28;20028;-63
2021/09/04 06:00:31;;;;;;;33.35;20.60;;;14.00;99.90;;;;;;5073054;28;20025;-63
2021/09/04 06:02:57;;;;;;;33.22;21.00;;;14.00;99.90;;;;;;5072755;28;20031;-63
2021/09/04 06:05:23;;;;;;;36.10;21.05;;;14.00;99.90;;;;;;5054939;28;20111;-63
2021/09/04 06:07:48;;;;;;;29.38;19.48;;;14.00;99.90;;;;;;5067668;28;20075;-63
2021/09/04 06:10:14;;;;;;;33.92;21.13;;;14.10;99.90;;;;;;5072673;28;20074;-63
2021/09/04 06:12:39;;;;;;;33.95;20.42;;;14.10;99.90;;;;;;5072846;28;20024;-63
2021/09/04 06:15:05;;;;;;;34.15;21.58;;;14.10;99.90;;;;;;5051962;28;20025;-63
2021/09/04 06:17:34;;;;;;;30.92;19.58;;;14.10;99.90;;;;;;5072614;28;20021;-63
2021/09/04 06:20:00;;;;;;;31.37;20.83;;;14.10;99.90;;;;;;5054568;28;20047;-63
2021/09/04 06:22:26;;;;;;;31.00;20.35;;;14.10;99.90;;;;;;5051925;28;20465;-63
2021/09/04 06:24:52;;;;;;;29.08;18.35;;;14.10;99.90;;;;;;5072473;28;20091;-63
2021/09/04 06:27:17;;;;;;;27.58;18.45;;;14.20;99.90;;;;;;5070514;28;20107;-63
2021/09/04 06:29:43;;;;;;;27.70;18.10;;;14.20;99.90;;;;;;5066351;28;20013;-65
2021/09/04 06:32:09;;;;;;;27.60;17.48;;;14.20;99.90;;;;;;5072237;28;20392;-65
2021/09/04 06:34:34;;;;;;;26.73;17.98;;;14.30;99.90;;;;;;5072571;28;20021;-65
2021/09/04 06:37:00;;;;;;;30.75;19.20;;;14.30;99.90;;;;;;5072309;28;20044;-63
2021/09/04 06:39:25;;;;;;;33.58;20.33;;;14.30;99.90;;;;;;5042217;28;20497;-63
2021/09/04 06:41:51;;;;;;;30.27;19.98;;;14.30;99.90;;;;;;5029437;28;20033;-63
2021/09/04 06:44:16;;;;;;;31.85;20.13;;;14.30;99.90;;;;;;5023243;28;20363;-62
2021/09/04 06:46:42;;;;;;;29.33;20.17;;;14.30;99.90;;;;;;5013337;28;20025;-63
2021/09/04 06:49:07;;;;;;;26.65;18.27;;;14.30;99.90;;;;;;5013132;28;20486;-63
2021/09/04 06:51:33;;;;;;;29.40;19.50;;;14.30;99.90;;;;;;5013403;28;20026;-63
2021/09/04 06:53:59;;;;;;;25.20;17.45;;;14.30;99.90;;;;;;5012014;28;20087;-63
2021/09/04 06:56:26;;;;;;;27.95;18.35;;;14.30;99.90;;;;;;5027404;28;20068;-63
2021/09/04 06:58:51;;;;;;;28.55;18.90;;;14.40;99.90;;;;;;5030740;28;20044;-63
2021/09/04 07:01:22;;;;;;;26.85;18.25;;;14.40;99.90;;;;;;5032089;28;20485;-63
2021/09/04 07:03:48;;;;;;;27.15;18.38;;;14.40;99.90;;;;;;5032996;28;20080;-63
2021/09/04 07:06:14;;;;;;;27.15;18.70;;;14.40;99.90;;;;;;5032864;28;20038;-63
2021/09/04 07:08:39;;;;;;;24.63;17.52;;;14.40;99.90;;;;;;5032173;28;20079;-63
2021/09/04 07:11:23;;;;;;;27.50;17.92;;;14.50;99.90;;;;;;5019783;28;20060;-63
2021/09/04 07:13:48;;;;;;;26.88;17.90;;;14.50;99.90;;;;;;5032124;28;20120;-63
2021/09/04 07:16:29;;;;;;;28.73;18.17;;;14.40;99.90;;;;;;5032085;28;20025;-63
2021/09/04 07:18:54;;;;;;;27.65;18.35;;;14.50;99.90;;;;;;5032041;28;20064;-63
2021/09/04 07:21:20;;;;;;;29.42;19.05;;;14.50;99.90;;;;;;5031861;28;20068;-63
2021/09/04 07:23:45;;;;;;;24.30;16.75;;;14.50;99.90;;;;;;5031937;28;20032;-63
2021/09/04 07:26:11;;;;;;;26.90;18.15;;;14.60;99.90;;;;;;5020912;28;20034;-63
2021/09/04 07:28:36;;;;;;;27.63;18.80;;;14.60;99.90;;;;;;5031264;28;20108;-63
2021/09/04 07:31:02;;;;;;;26.00;16.92;;;14.60;99.80;;;;;;5032523;28;20036;-63
2021/09/04 07:33:27;;;;;;;24.75;17.00;;;14.60;99.80;;;;;;5031431;28;20037;-63
2021/09/04 07:35:54;;;;;;;23.02;15.70;;;14.70;99.70;;;;;;5032622;28;20034;-63
2021/09/04 07:38:20;;;;;;;26.73;17.70;;;14.70;99.60;;;;;;5032682;28;20108;-63
2021/09/04 07:40:45;;;;;;;22.23;16.35;;;14.70;99.50;;;;;;5071914;28;20167;-63
2021/09/04 07:43:13;;;;;;;22.48;15.98;;;14.70;99.30;;;;;;5072369;28;20020;-63
2021/09/04 07:45:56;;;;;;;21.98;15.38;;;14.80;99.30;;;;;;5072542;28;20533;-63
2021/09/04 07:48:50;;;;;;;20.55;14.85;;;14.80;99.10;;;;;;5043465;28;20025;-62
2021/09/04 07:51:16;;;;;;;24.20;15.45;;;14.80;99.00;;;;;;5071058;28;20155;-62
2021/09/04 07:53:41;;;;;;;27.38;16.27;;;14.80;99.00;;;;;;5057103;28;20111;-62
2021/09/04 07:56:07;;;;;;;21.42;15.85;;;14.80;98.90;;;;;;5062577;28;20464;-62
2021/09/04 07:58:32;;;;;;;21.55;15.52;;;14.90;98.80;;;;;;5072134;28;20474;-62
2021/09/04 08:00:59;;;;;;;22.15;14.32;;;14.90;98.70;;;;;;5068150;28;20485;-62
2021/09/04 08:03:24;;;;;;;22.02;15.60;;;14.90;98.70;;;;;;5050236;28;20365;-62
2021/09/04 08:05:50;;;;;;;22.58;15.93;;;15.00;98.60;;;;;;5061722;28;20028;-62
2021/09/04 08:08:15;;;;;;;22.75;16.40;;;15.10;98.50;;;;;;5051368;28;20485;-62
2021/09/04 08:10:43;;;;;;;25.65;18.30;;;15.10;98.40;;;;;;5055824;28;20056;-62
2021/09/04 08:13:10;;;;;;;26.65;18.15;;;15.20;98.40;;;;;;5055681;28;20021;-62
2021/09/04 08:15:36;;;;;;;25.30;18.13;;;15.20;98.20;;;;;;5037899;28;20481;-62
2021/09/04 08:18:02;;;;;;;23.98;17.60;;;15.20;98.10;;;;;;5058178;28;20033;-62
2021/09/04 08:20:28;;;;;;;24.75;17.13;;;15.20;98.10;;;;;;5037579;28;20075;-62
2021/09/04 08:22:54;;;;;;;23.33;17.58;;;15.30;98.00;;;;;;5054797;28;20651;-62
2021/09/04 08:25:20;;;;;;;21.50;15.30;;;15.30;97.90;;;;;;5054247;28;20021;-63
2021/09/04 08:27:46;;;;;;;22.67;16.83;;;15.30;97.80;;;;;;5055546;28;20096;-63
2021/09/04 08:30:12;;;;;;;22.05;15.40;;;15.40;97.70;;;;;;5065860;28;20109;-63
2021/09/04 08:32:38;;;;;;;22.58;15.85;;;15.40;97.60;;;;;;5052282;28;20017;-63
2021/09/04 08:35:05;;;;;;;21.67;16.73;;;15.50;97.50;;;;;;5074985;28;20020;-63
2021/09/04 08:37:30;;;;;;;22.52;16.02;;;15.60;97.30;;;;;;5075350;28;20468;-62
2021/09/04 08:39:56;;;;;;;25.98;17.75;;;15.60;97.20;;;;;;5075053;28;20071;-62
2021/09/04 08:42:44;;;;;;;21.42;15.70;;;15.70;97.00;;;;;;5061708;28;21880;-62
2021/09/04 08:45:10;;;;;;;18.85;13.52;;;15.80;96.80;;;;;;5033054;28;20039;-62
2021/09/04 08:47:36;;;;;;;18.83;14.32;;;15.80;96.80;;;;;;5040817;28;20021;-62
2021/09/04 08:50:02;;;;;;;21.65;15.65;;;15.90;96.60;;;;;;5054987;28;20033;-62
2021/09/04 08:52:28;;;;;;;22.38;15.93;;;16.00;96.40;;;;;;5054988;28;20358;-62
2021/09/04 08:54:54;;;;;;;21.05;14.95;;;16.10;96.20;;;;;;5061040;28;20507;-62
2021/09/04 08:57:22;;;;;;;20.10;15.38;;;16.20;96.10;;;;;;5054283;28;20056;-62
2021/09/04 08:59:51;;;;;;;19.27;14.27;;;16.30;95.80;;;;;;5024750;28;20040;-63
2021/09/04 09:02:19;;;;;;;19.35;14.40;;;16.40;95.70;;;;;;5044412;28;20039;-62
2021/09/04 09:04:59;;;;;;;18.50;14.43;;;16.50;95.40;;;;;;5073838;28;20024;-62
2021/09/04 09:07:37;;;;;;;21.02;14.80;;;16.60;95.20;;;;;;5051847;28;20048;-62
2021/09/04 09:10:21;;;;;;;18.55;13.93;;;16.80;95.00;;;;;;5069553;28;20021;-62
2021/09/04 09:12:50;;;;;;;17.15;14.15;;;16.90;94.80;;;;;;5071825;28;20024;-63
2021/09/04 09:15:24;;;;;;;20.45;13.52;;;17.00;94.60;;;;;;5072737;28;20059;-63
2021/09/04 09:18:15;;;;;;;19.58;14.82;;;17.10;94.20;;;;;;5074678;28;20060;-63
2021/09/04 09:21:00;;;;;;;19.92;14.82;;;17.20;93.90;;;;;;5055850;28;20029;-63
2021/09/04 09:23:32;;;;;;;21.13;14.82;;;17.30;93.60;;;;;;5074451;28;20025;-63
2021/09/04 09:26:09;;;;;;;17.85;14.38;;;17.40;93.20;;;;;;5056022;28;20070;-63
2021/09/04 09:28:35;;;;;;;16.45;13.55;;;17.50;92.90;;;;;;5073853;28;20013;-63
2021/09/04 09:31:01;;;;;;;18.65;13.65;;;17.60;92.60;;;;;;5070030;28;20029;-63
2021/09/04 09:33:28;;;;;;;16.33;12.73;;;17.70;92.50;;;;;;5073460;28;20028;-63
2021/09/04 09:36:17;;;;;;;16.52;12.48;;;17.90;92.20;;;;;;5057220;28;20495;-63
2021/09/04 09:38:43;;;;;;;16.52;13.13;;;18.20;91.90;;;;;;5073578;28;20113;-63
2021/09/04 09:41:09;;;;;;;15.63;12.20;;;18.30;91.50;;;;;;5073429;28;20032;-63
2021/09/04 09:43:35;;;;;;;16.08;11.85;;;18.40;91.30;;;;;;5067840;28;20025;-63
2021/09/04 09:46:03;;;;;;;16.85;11.30;;;18.50;90.90;;;;;;5073373;28;20465;-63
2021/09/04 09:48:31;;;;;;;17.52;12.05;;;18.60;90.70;;;;;;5072561;28;20045;-63
2021/09/04 09:51:00;;;;;;;14.90;10.43;;;18.70;90.50;;;;;;5073370;28;20024;-63
2021/09/04 09:53:27;;;;;;;13.65;10.57;;;18.90;90.30;;;;;;5060963;28;20032;-63
2021/09/04 09:55:54;;;;;;;12.68;10.15;;;19.10;89.70;;;;;;5056388;28;20040;-63
2021/09/04 09:58:21;;;;;;;12.68;10.52;;;19.20;89.30;;;;;;5054849;28;20606;-63
2021/09/04 10:00:49;;;;;;;14.13;11.38;;;19.30;89.00;;;;;;5072962;28;20024;-63
2021/09/04 10:03:15;;;;;;;14.88;11.05;;;19.40;87.40;;;;;;5073098;28;20024;-63
2021/09/04 10:05:42;;;;;;;15.00;11.32;;;19.30;87.70;;;;;;5055113;28;20013;-63
2021/09/04 10:08:07;;;;;;;14.63;11.43;;;19.40;87.70;;;;;;5073778;28;20017;-63
2021/09/04 10:10:38;;;;;;;14.45;11.68;;;19.40;87.40;;;;;;5055732;28;20464;-63
2021/09/04 10:13:04;;;;;;;14.50;10.00;;;19.50;87.10;;;;;;5073499;28;20387;-63
2021/09/04 10:15:34;;;;;;;13.07;11.13;;;19.60;87.30;;;;;;5073508;28;20028;-63
2021/09/04 10:18:03;;;;;;;13.52;10.60;;;19.70;86.90;;;;;;5054639;28;20063;-63
2021/09/04 10:20:30;;;;;;;;;;;19.90;86.10;;;;;;5067813;28;20036;-63
2021/09/04 10:22:57;;;;;;;10.45;9.00;;;20.00;85.50;;;;;;5054615;28;20027;-64
2021/09/04 10:25:23;;;;;;;14.90;11.00;;;20.10;85.00;;;;;;5073304;28;20028;-63
2021/09/04 10:27:50;;;;;;;13.63;10.68;;;20.30;84.60;;;;;;5073390;28;20636;-64
2021/09/04 10:30:34;;;;;;;12.75;9.93;;;20.40;83.80;;;;;;5055145;28;20020;-64
2021/09/04 10:33:09;;;;;;;12.65;10.05;;;20.60;83.20;;;;;;5056130;28;20051;-64
2021/09/04 10:35:43;;;;;;;11.32;9.60;;;20.80;82.60;;;;;;5073257;28;20020;-64
2021/09/04 10:38:29;;;;;;;12.95;9.85;;;21.00;81.80;;;;;;5055698;28;20444;-64
2021/09/04 10:41:22;;;;;;;12.00;9.65;;;21.20;81.40;;;;;;5072422;28;20080;-64
2021/09/04 10:44:13;;;;;;;13.68;10.75;;;21.50;80.40;;;;;;5068960;28;20078;-63
2021/09/04 10:46:38;;;;;;;12.02;9.80;;;21.60;79.80;;;;;;5070932;28;20024;-64
2021/09/04 10:49:05;;;;;;;13.63;9.38;;;21.80;79.70;;;;;;5068370;28;20017;-64
2021/09/04 10:51:51;;;;;;;11.68;9.68;;;22.00;78.80;;;;;;5072499;28;20386;-64
2021/09/04 10:54:57;;;;;;;11.85;8.20;;;22.40;78.20;;;;;;5067925;28;20012;-64
2021/09/04 10:57:23;;;;;;;9.23;7.97;;;22.90;78.60;;;;;;5054355;28;20052;-64
2021/09/04 11:00:05;;;;;;;9.23;8.18;;;24.20;77.70;;;;;;5071981;28;20078;-64
2021/09/04 11:03:10;;;;;;;11.55;8.20;;;26.80;72.20;;;;;;5071951;28;20024;-64
2021/09/04 11:05:44;;;;;;;7.28;6.45;;;29.20;64.40;;;;;;5030468;28;20043;-64
2021/09/04 11:08:11;;;;;;;7.90;7.03;;;31.30;59.10;;;;;;5066641;28;20041;-64
2021/09/04 11:10:42;;;;;;;10.85;7.88;;;32.70;54.10;;;;;;5072092;28;20021;-64
2021/09/04 11:13:13;;;;;;;8.27;7.47;;;32.90;52.10;;;;;;5070621;28;20035;-64
2021/09/04 11:15:43;;;;;;;8.20;7.28;;;32.50;51.80;;;;;;5065910;28;20535;-64
2021/09/04 11:18:11;;;;;;;7.32;6.38;;;32.30;51.60;;;;;;5072371;28;20105;-64
2021/09/04 11:20:42;;;;;;;7.93;7.13;;;32.10;52.10;;;;;;5053711;28;20031;-64
2021/09/04 11:23:08;;;;;;;7.47;6.53;;;31.90;51.30;;;;;;5026672;28;20033;-64
2021/09/04 11:25:34;;;;;;;8.52;7.07;;;32.60;52.60;;;;;;5072299;28;20062;-65
2021/09/04 11:27:59;;;;;;;7.45;6.70;;;33.80;50.00;;;;;;5072458;28;20107;-65
2021/09/04 11:30:25;;;;;;;8.80;6.57;;;34.90;47.00;;;;;;5072481;28;20044;-65
2021/09/04 11:32:50;;;;;;;7.50;6.22;;;35.70;45.70;;;;;;5072398;28;20025;-64
2021/09/04 11:35:16;;;;;;;7.20;6.53;;;36.70;45.50;;;;;;5072606;28;20029;-65
2021/09/04 11:37:44;;;;;;;7.28;6.57;;;37.90;44.20;;;;;;5071585;28;20070;-65
2021/09/04 11:43:18;;;;;;;7.63;6.50;;;40.60;40.80;;;;;;5072254;28;20475;-65
2021/09/04 11:45:44;;;;;;;7.63;6.88;;;41.80;39.40;;;;;;5074704;28;20016;-65
2021/09/04 11:48:11;;;;;;;8.32;7.53;;;42.30;37.70;;;;;;5074299;28;20036;-65
2021/09/04 11:50:37;;;;;;;7.97;6.57;;;43.10;36.40;;;;;;5074955;28;20028;-65
2021/09/04 11:53:11;;;;;;;7.20;6.60;;;43.70;36.40;;;;;;5072650;28;20784;-65
2021/09/04 11:55:37;;;;;;;7.45;6.75;;;44.10;35.80;;;;;;5072286;28;20499;-65
2021/09/04 11:58:09;;;;;;;8.90;8.00;;;44.50;34.70;;;;;;5055507;28;20393;-65
2021/09/04 12:00:36;;;;;;;6.93;6.32;;;44.50;33.30;;;;;;5069872;28;20045;-65
2021/09/04 12:03:03;;;;;;;8.02;6.97;;;44.70;34.20;;;;;;5074062;28;20071;-65
2021/09/04 12:05:30;;;;;;;7.80;7.10;;;45.20;33.80;;;;;;5075050;28;20469;-65
2021/09/04 12:08:06;;;;;;;;;;;45.80;33.20;;;;;;5069629;28;20131;-65
2021/09/04 12:10:34;;;;;;;8.00;7.30;;;46.00;33.00;;;;;;5053787;28;19912;-65
2021/09/04 12:13:07;;;;;;;6.53;5.88;;;46.30;32.30;;;;;;5072198;28;20112;-65
2021/09/04 12:15:34;;;;;;;8.70;7.82;;;46.70;32.80;;;;;;5075319;28;20032;-65
2021/09/04 12:18:02;;;;;;;8.37;7.57;;;46.70;31.10;;;;;;5074871;28;20044;-65
2021/09/04 12:20:39;;;;;;;7.38;6.78;;;46.30;31.70;;;;;;5070375;28;20033;-65
2021/09/04 12:23:13;;;;;;;7.57;6.88;;;46.20;32.00;;;;;;5067988;28;20048;-65
2021/09/04 12:25:39;;;;;;;6.72;6.13;;;46.00;32.50;;;;;;5075878;28;20074;-65
2021/09/04 12:28:07;;;;;;;7.80;7.10;;;46.10;32.80;;;;;;5075592;28;20020;-65
2021/09/04 12:30:33;;;;;;;;;;;45.70;32.10;;;;;;5067821;28;20028;-65
2021/09/04 12:33:07;;;;;;;7.13;6.43;;;45.30;32.20;;;;;;5055433;28;20246;-65
2021/09/04 12:35:52;;;;;;;8.10;7.10;;;44.50;32.50;;;;;;5069466;28;20740;-65